Alexander City, Alabama
Current Conditions -  °F | °C
As of 2:55 PM on Sunday 23 Nov 2014 (Local Time) from KALX Reporting Station
Thunderstorm Thunderstorm  
Wind Chill: 69°   Ceiling: Unl
Heat Index: 69°   Visibility: 10mi
Dew Point: 64°   Wind: 9mph
Humidity: 83%   Direction: 200°SSW
Pressure: 29.62"   Gusts: NA
Location:  32.94°N, 85.95°W
Report Text: KALX 232055Z AUTO 20008KT 10SM -VCTSRA SCT005 SCT010 SCT090 21/18 A2962 RMK AO2 LTG DSNT E THRU S P0010 60044 T02070178
Loading
Personal Weather Stations






























Interactive Weather Map New forecast layout! Learn more

10-Day Weather Forecast

Advertisements
Track Severe Weather on mobile